Time;durP1;ratioP1;P1;durP2;ratioP2;P2;SDS_P1;SDS_P2;PMS_P1;PMS_P2;Temp;Humidity;BMP_temperature;BMP_pressure;BME280_temperature;BME280_humidity;BME280_pressure;Samples;Min_cycle;Max_cycle;Signal;HPM_P1;HPM_P2
2022/12/03 00:00:26;;;;;;;35.60;14.18;;;;;;;0.61;100.00;95867.34;1030924;28;20038;-69
2022/12/03 00:00:57;;;;;;;33.60;14.50;;;;;;;0.65;100.00;95871.13;1030460;28;20408;-69
2022/12/03 00:01:27;;;;;;;30.38;13.50;;;;;;;0.61;100.00;95867.34;1039010;28;20033;-69
2022/12/03 00:01:58;;;;;;;31.77;14.15;;;;;;;0.51;100.00;95856.63;1037410;28;20037;-69
2022/12/03 00:02:28;;;;;;;29.48;13.38;;;;;;;0.58;100.00;95865.16;1037805;28;20029;-69
2022/12/03 00:02:59;;;;;;;34.70;13.98;;;;;;;0.58;100.00;95867.75;1038912;28;20030;-69
2022/12/03 00:03:29;;;;;;;30.83;13.02;;;;;;;0.53;100.00;95864.94;1038698;28;20104;-69
2022/12/03 00:04:00;;;;;;;27.55;12.95;;;;;;;0.55;100.00;95872.50;1042580;28;20380;-69
2022/12/03 00:04:30;;;;;;;29.00;13.48;;;;;;;0.52;100.00;95858.19;1034817;28;20459;-69
2022/12/03 00:05:00;;;;;;;29.35;13.23;;;;;;;0.48;100.00;95862.16;1030621;28;20058;-69
2022/12/03 00:05:31;;;;;;;29.80;13.70;;;;;;;0.47;100.00;95855.44;1030964;28;20090;-69
2022/12/03 00:06:02;;;;;;;33.55;13.55;;;;;;;0.52;100.00;95862.56;1026892;28;20038;-69
2022/12/03 00:06:32;;;;;;;33.30;14.85;;;;;;;0.53;100.00;95864.16;1034891;28;20021;-68
2022/12/03 00:07:02;;;;;;;32.10;14.13;;;;;;;0.54;100.00;95866.56;1035167;28;20045;-69
2022/12/03 00:07:33;;;;;;;28.45;13.40;;;;;;;0.54;100.00;95866.56;1034874;28;20080;-69
2022/12/03 00:08:03;;;;;;;33.70;14.25;;;;;;;0.53;100.00;95867.53;1034590;28;20029;-69
2022/12/03 00:08:34;;;;;;;32.10;13.75;;;;;;;0.52;100.00;95860.00;1031114;28;20018;-69
2022/12/03 00:09:04;;;;;;;27.52;12.48;;;;;;;0.52;100.00;95860.00;1030970;28;20076;-69
2022/12/03 00:09:35;;;;;;;31.90;15.18;;;;;;;0.51;100.00;95861.00;1034799;28;20025;-69
2022/12/03 00:10:06;;;;;;;34.63;13.50;;;;;;;0.47;100.00;95866.53;1038215;28;20482;-69
2022/12/03 00:10:36;;;;;;;33.36;13.80;;;;;;;0.45;100.00;95859.97;1034849;28;20605;-68
2022/12/03 00:11:07;;;;;;;27.88;14.13;;;;;;;0.49;100.00;95860.38;1035250;28;20037;-69
2022/12/03 00:11:37;;;;;;;33.60;13.85;;;;;;;0.45;100.00;95860.78;1034806;28;20034;-69
2022/12/03 00:12:08;;;;;;;32.83;13.88;;;;;;;0.43;100.00;95862.75;1034766;28;20037;-69
2022/12/03 00:12:38;;;;;;;36.28;14.18;;;;;;;0.40;100.00;95850.25;1035948;28;20041;-69
2022/12/03 00:13:09;;;;;;;31.88;13.25;;;;;;;0.36;100.00;95848.25;1030691;28;20061;-68
2022/12/03 00:13:39;;;;;;;32.05;13.32;;;;;;;0.44;100.00;95866.16;1030724;28;20026;-70
2022/12/03 00:14:10;;;;;;;34.80;14.32;;;;;;;0.35;100.00;95854.41;1032083;28;20037;-69
2022/12/03 00:14:40;;;;;;;34.47;15.32;;;;;;;0.40;100.00;95860.56;1034979;28;20014;-69
2022/12/03 00:15:11;;;;;;;31.85;14.18;;;;;;;0.44;100.00;95863.56;1039123;28;20476;-69
2022/12/03 00:15:41;;;;;;;33.03;13.23;;;;;;;0.43;100.00;95864.53;1034910;28;20026;-69
2022/12/03 00:16:12;;;;;;;37.85;15.35;;;;;;;0.44;100.00;95866.16;1034775;28;20517;-70
2022/12/03 00:16:42;;;;;;;32.33;13.75;;;;;;;0.39;100.00;95865.91;1040948;28;20017;-68
2022/12/03 00:17:13;;;;;;;32.78;15.30;;;;;;;0.41;100.00;95863.94;1038786;28;20028;-69
2022/12/03 00:17:43;;;;;;;34.35;14.85;;;;;;;0.40;100.00;95863.16;1038747;28;20032;-68
2022/12/03 00:18:14;;;;;;;35.22;14.43;;;;;;;0.38;100.00;95862.53;1038983;28;20025;-69
2022/12/03 00:18:44;;;;;;;34.05;15.07;;;;;;;0.40;100.00;95867.50;1038984;28;20068;-69
2022/12/03 00:19:15;;;;;;;39.45;15.77;;;;;;;0.39;100.00;95869.28;1035071;28;20038;-68
2022/12/03 00:19:45;;;;;;;37.83;15.10;;;;;;;0.38;100.00;95862.53;1038934;28;20391;-69
2022/12/03 00:20:18;;;;;;;38.35;14.88;;;;;;;0.38;100.00;95861.75;1034295;28;20026;-69
2022/12/03 00:20:49;;;;;;;35.78;14.46;;;;;;;0.33;100.00;95864.91;1035181;28;20030;-68
2022/12/03 00:21:19;;;;;;;33.97;13.90;;;;;;;0.38;100.00;95866.91;1030680;28;20023;-69
2022/12/03 00:21:50;;;;;;;41.97;16.50;;;;;;;0.28;100.00;95851.00;1031638;28;20511;-69
2022/12/03 00:22:20;;;;;;;43.55;15.48;;;;;;;0.34;100.00;95863.94;1034385;28;20033;-71
2022/12/03 00:22:51;;;;;;;36.17;15.52;;;;;;;0.31;100.00;95858.38;1038792;28;20029;-69
2022/12/03 00:23:21;;;;;;;38.92;14.30;;;;;;;0.36;100.00;95866.31;1038703;28;20558;-69
2022/12/03 00:23:52;;;;;;;41.65;15.35;;;;;;;0.32;100.00;95865.09;1038761;28;20022;-69
2022/12/03 00:24:22;;;;;;;45.30;16.42;;;;;;;0.28;100.00;95858.75;1034726;28;20475;-69
2022/12/03 00:24:52;;;;;;;38.00;14.75;;;;;;;0.30;100.00;95861.91;1035058;28;20034;-69
2022/12/03 00:25:23;;;;;;;40.35;14.90;;;;;;;0.31;100.00;95854.00;1038694;28;20065;-69
2022/12/03 00:25:53;;;;;;;38.00;15.13;;;;;;;0.22;100.00;95855.94;1034819;28;20033;-69
2022/12/03 00:26:24;;;;;;;37.30;14.93;;;;;;;0.31;100.00;95866.09;1035023;28;20061;-69
2022/12/03 00:26:54;;;;;;;41.40;14.98;;;;;;;0.31;100.00;95863.53;1030522;28;20037;-69
2022/12/03 00:27:25;;;;;;;44.03;15.40;;;;;;;0.22;100.00;95853.38;1031075;28;20420;-70
2022/12/03 00:27:55;;;;;;;44.55;15.45;;;;;;;0.18;100.00;95851.38;1026681;28;20511;-69
2022/12/03 00:28:26;;;;;;;38.88;15.00;;;;;;;0.17;100.00;95863.50;1023096;28;20030;-69
2022/12/03 00:28:56;;;;;;;39.42;13.90;;;;;;;0.20;100.00;95859.69;1026579;28;20046;-69
2022/12/03 00:29:27;;;;;;;39.92;14.93;;;;;;;0.15;100.00;95855.13;1030517;28;20034;-70
2022/12/03 00:29:57;;;;;;;38.60;15.35;;;;;;;0.12;100.00;95858.09;1032651;28;20370;-69
2022/12/03 00:30:28;;;;;;;38.35;14.30;;;;;;;0.10;100.00;95860.09;1038034;28;20026;-69
2022/12/03 00:30:58;;;;;;;45.33;15.02;;;;;;;0.11;100.00;95856.53;1043343;28;20040;-69
2022/12/03 00:31:29;;;;;;;41.72;15.60;;;;;;;0.11;100.00;95856.53;1043813;28;20583;-70
2022/12/03 00:31:59;;;;;;;41.95;15.45;;;;;;;0.12;100.00;95860.69;1043491;28;20025;-70
2022/12/03 00:32:29;;;;;;;38.35;15.32;;;;;;;0.09;100.00;95853.31;1042476;28;20036;-70
2022/12/03 00:33:00;;;;;;;40.30;14.60;;;;;;;0.09;100.00;95858.50;1041825;28;20573;-69
2022/12/03 00:33:30;;;;;;;40.78;14.77;;;;;;;0.11;100.00;95860.88;1042908;28;20025;-69
2022/12/03 00:34:01;;;;;;;45.92;16.00;;;;;;;-0.02;100.00;95854.69;1042993;28;20033;-69
2022/12/03 00:34:32;;;;;;;43.17;16.08;;;;;;;0.06;100.00;95861.44;1043361;28;20013;-70
2022/12/03 00:35:02;;;;;;;42.08;14.82;;;;;;;0.07;100.00;95859.66;1038463;28;20021;-69
2022/12/03 00:35:33;;;;;;;35.72;13.82;;;;;;;0.08;100.00;95867.22;1030722;28;20026;-69
2022/12/03 00:36:04;;;;;;;41.28;15.38;;;;;;;0.06;100.00;95863.25;1031044;28;20034;-70
2022/12/03 00:36:34;;;;;;;38.97;14.75;;;;;;;0.07;100.00;95864.81;1029020;28;20038;-69
2022/12/03 00:37:04;;;;;;;36.45;15.20;;;;;;;0.06;100.00;95858.88;1026863;28;20396;-69
2022/12/03 00:37:35;;;;;;;42.05;14.93;;;;;;;0.08;100.00;95864.66;1030654;28;20135;-70
2022/12/03 00:38:05;;;;;;;48.13;16.08;;;;;;;-0.07;100.00;95840.78;1026669;28;20034;-69
2022/12/03 00:38:36;;;;;;;42.70;14.48;;;;;;;0.02;100.00;95862.84;1032014;28;20480;-70
2022/12/03 00:39:06;;;;;;;39.85;15.02;;;;;;;0.00;100.00;95862.25;1030780;28;20030;-69
2022/12/03 00:39:37;;;;;;;39.03;14.27;;;;;;;0.01;100.00;95869.00;1030885;28;20026;-69
2022/12/03 00:40:08;;;;;;;45.90;16.17;;;;;;;-0.06;100.00;95863.81;1035093;28;20022;-69
2022/12/03 00:40:38;;;;;;;45.22;16.20;;;;;;;-0.01;100.00;95866.59;1034788;28;20048;-69
2022/12/03 00:41:09;;;;;;;46.28;16.02;;;;;;;0.01;100.00;95863.03;1030794;28;20285;-69
2022/12/03 00:41:39;;;;;;;42.20;16.20;;;;;;;-0.02;100.00;95861.63;1030849;28;20031;-69
2022/12/03 00:42:09;;;;;;;46.55;16.25;;;;;;;-0.02;100.00;95861.63;1031829;28;20101;-68
2022/12/03 00:42:40;;;;;;;46.78;16.70;;;;;;;-0.03;100.00;95867.78;1026456;28;20027;-69
2022/12/03 00:43:13;;;;;;;39.67;15.02;;;;;;;-0.11;100.00;95862.78;1026566;28;20031;-69
2022/12/03 00:43:43;;;;;;;41.66;14.80;;;;;;;-0.03;100.00;95860.06;1030893;28;20022;-70
2022/12/03 00:44:13;;;;;;;46.00;16.73;;;;;;;0.02;100.00;95867.19;1030987;28;20026;-69
2022/12/03 00:44:44;;;;;;;44.47;15.77;;;;;;;0.02;100.00;95869.78;1026549;28;20054;-69
2022/12/03 00:45:14;;;;;;;47.30;17.48;;;;;;;0.00;100.00;95870.00;1026994;28;20237;-69
2022/12/03 00:45:45;;;;;;;39.28;15.43;;;;;;;-0.02;100.00;95859.06;1034713;28;20119;-69
2022/12/03 00:46:15;;;;;;;43.40;15.93;;;;;;;-0.03;100.00;95862.63;1038838;28;20021;-69
2022/12/03 00:46:46;;;;;;;47.08;16.65;;;;;;;0.01;100.00;95863.84;1037511;28;20036;-69
2022/12/03 00:47:16;;;;;;;45.90;17.38;;;;;;;-0.01;100.00;95866.59;1034501;28;20084;-70
2022/12/03 00:47:48;;;;;;;46.03;17.33;;;;;;;-0.04;100.00;95873.91;1038708;28;20446;-70
2022/12/03 00:48:19;;;;;;;48.66;15.74;;;;;;;-0.03;100.00;95865.22;1035372;28;20034;-70
2022/12/03 00:48:49;;;;;;;41.28;16.60;;;;;;;-0.07;100.00;95869.97;1034228;28;20030;-70
2022/12/03 00:49:20;;;;;;;50.22;16.80;;;;;;;-0.03;100.00;95870.38;1031024;28;20034;-70
2022/12/03 00:49:51;;;;;;;44.20;15.82;;;;;;;-0.04;100.00;95879.88;1030590;28;20148;-69
2022/12/03 00:50:21;;;;;;;43.47;16.00;;;;;;;-0.14;100.00;95860.59;1030667;28;20109;-68
2022/12/03 00:50:52;;;;;;;44.55;16.33;;;;;;;-0.07;100.00;95869.97;1035151;28;20487;-69
2022/12/03 00:51:22;;;;;;;47.80;16.13;;;;;;;-0.08;100.00;95870.94;1038902;28;20107;-69
2022/12/03 00:51:53;;;;;;;44.53;15.60;;;;;;;-0.10;100.00;95870.34;1034703;28;20022;-69
2022/12/03 00:52:23;;;;;;;44.75;15.52;;;;;;;-0.11;100.00;95867.94;1035597;28;20029;-68
2022/12/03 00:52:53;;;;;;;45.00;15.32;;;;;;;-0.12;100.00;95866.34;1034730;28;20041;-68
2022/12/03 00:53:24;;;;;;;45.40;15.55;;;;;;;-0.10;100.00;95866.94;1035060;28;20044;-69
2022/12/03 00:53:54;;;;;;;49.67;17.23;;;;;;;-0.11;100.00;95862.78;1031805;28;20038;-69
2022/12/03 00:54:25;;;;;;;48.60;16.00;;;;;;;-0.11;100.00;95862.78;1030501;28;20031;-69
2022/12/03 00:54:58;;;;;;;47.38;15.63;;;;;;;-0.07;100.00;95866.56;1034968;28;20030;-70
2022/12/03 00:55:28;;;;;;;45.62;16.64;;;;;;;-0.08;100.00;95870.94;1034472;28;20026;-69
2022/12/03 00:56:00;;;;;;;51.80;17.38;;;;;;;-0.05;100.00;95867.19;1035042;28;20057;-69
2022/12/03 00:56:30;;;;;;;49.52;16.30;;;;;;;-0.06;100.00;95860.44;1039405;28;20556;-69
2022/12/03 00:57:04;;;;;;;47.80;15.73;;;;;;;-0.09;100.00;95866.75;1038718;28;20088;-69
2022/12/03 00:57:34;;;;;;;49.58;16.64;;;;;;;-0.10;100.00;95862.59;1038844;28;20031;-68
2022/12/03 00:58:07;;;;;;;48.10;16.73;;;;;;;-0.08;100.00;95859.81;1037334;28;20036;-69
2022/12/03 00:58:37;;;;;;;46.02;15.96;;;;;;;-0.11;100.00;95867.94;1035397;28;20037;-69
2022/12/03 00:59:08;;;;;;;45.58;16.08;;;;;;;-0.12;100.00;95866.34;1034069;28;20021;-69
2022/12/03 00:59:38;;;;;;;48.15;17.13;;;;;;;-0.16;100.00;95857.41;1026875;28;20098;-69
2022/12/03 01:00:09;;;;;;;45.03;16.30;;;;;;;-0.13;100.00;95864.78;1026853;28;20038;-69
2022/12/03 01:00:40;;;;;;;49.40;16.42;;;;;;;-0.09;100.00;95861.59;1025587;28;20090;-69
2022/12/03 01:01:13;;;;;;;56.50;17.60;;;;;;;-0.10;100.00;95856.63;1026910;28;20069;-69
2022/12/03 01:01:43;;;;;;;52.92;16.80;;;;;;;-0.01;100.00;95860.63;1027474;28;20648;-69
2022/12/03 01:02:14;;;;;;;47.22;16.23;;;;;;;-0.06;100.00;95866.38;1022431;28;20077;-69
2022/12/03 01:02:44;;;;;;;52.20;17.67;;;;;;;-0.03;100.00;95870.38;1022632;29;20603;-69
2022/12/03 01:03:15;;;;;;;43.92;16.40;;;;;;;0.01;100.00;95871.56;1023490;28;20031;-69
2022/12/03 01:03:45;;;;;;;46.80;16.13;;;;;;;-0.04;100.00;95863.59;1026727;28;20031;-69
2022/12/03 01:04:16;;;;;;;48.90;17.23;;;;;;;-0.03;100.00;95870.38;1029302;28;20034;-69
2022/12/03 01:04:46;;;;;;;43.85;16.88;;;;;;;-0.05;100.00;95867.19;1030597;28;20030;-69
2022/12/03 01:05:18;;;;;;;47.88;16.00;;;;;;;-0.01;100.00;95863.22;1030715;28;20022;-69
2022/12/03 01:05:48;;;;;;;46.36;17.14;;;;;;;-0.03;100.00;95860.84;1030984;28;20029;-69
2022/12/03 01:06:19;;;;;;;45.80;16.63;;;;;;;0.01;100.00;95865.63;1030711;28;20052;-69
2022/12/03 01:06:49;;;;;;;48.30;15.27;;;;;;;0.00;100.00;95864.81;1030578;28;20015;-69
2022/12/03 01:07:19;;;;;;;50.92;16.35;;;;;;;-0.04;100.00;95858.44;1030832;28;20512;-69
2022/12/03 01:07:50;;;;;;;44.47;15.05;;;;;;;-0.06;100.00;95866.38;1026581;28;20027;-69
2022/12/03 01:08:20;;;;;;;46.50;15.90;;;;;;;-0.05;100.00;95860.22;1026860;28;20069;-70
2022/12/03 01:08:51;;;;;;;51.97;17.23;;;;;;;-0.05;100.00;95859.44;1031568;28;20023;-69
2022/12/03 01:09:21;;;;;;;54.55;17.60;;;;;;;-0.03;100.00;95855.69;1038646;28;20024;-69
2022/12/03 01:09:52;;;;;;;49.03;16.70;;;;;;;-0.03;100.00;95860.06;1034914;28;20029;-68
2022/12/03 01:10:22;;;;;;;50.92;16.95;;;;;;;-0.11;100.00;95850.69;1034714;28;20045;-68
2022/12/03 01:10:53;;;;;;;51.25;17.10;;;;;;;-0.10;100.00;95859.19;1033377;28;20480;-69
2022/12/03 01:11:38;;;;;;;53.55;17.02;;;;;;;-0.10;100.00;95860.03;1026983;28;20016;-68
2022/12/03 01:12:10;;;;;;;51.30;16.58;;;;;;;-0.12;100.00;95851.69;1028773;28;20031;-69
2022/12/03 01:12:41;;;;;;;46.06;16.14;;;;;;;-0.10;100.00;95859.19;1026416;28;20550;-69
2022/12/03 01:13:11;;;;;;;50.55;15.60;;;;;;;-0.09;100.00;95858.25;1028776;28;20022;-69
2022/12/03 01:13:42;;;;;;;46.00;17.20;;;;;;;-0.07;100.00;95858.81;1032983;28;20065;-69
2022/12/03 01:14:14;;;;;;;52.13;17.65;;;;;;;-0.08;100.00;95858.03;1034875;28;20022;-69
2022/12/03 01:14:44;;;;;;;54.78;17.34;;;;;;;-0.03;100.00;95855.69;1038622;28;20089;-69
2022/12/03 01:15:15;;;;;;;49.30;16.42;;;;;;;-0.04;100.00;95855.88;1039036;28;20030;-69
2022/12/03 01:15:46;;;;;;;46.83;16.88;;;;;;;-0.05;100.00;95854.28;1038765;28;20053;-69
2022/12/03 01:16:19;;;;;;;52.33;19.30;;;;;;;-0.05;100.00;95854.28;1034491;28;20029;-70
2022/12/03 01:16:49;;;;;;;51.58;15.98;;;;;;;-0.05;100.00;95852.50;1031302;28;20077;-69
2022/12/03 01:17:20;;;;;;;50.55;16.60;;;;;;;-0.04;100.00;95850.69;1030539;28;20062;-70
2022/12/03 01:17:53;;;;;;;55.03;17.50;;;;;;;-0.03;100.00;95850.53;1030821;28;20026;-69
2022/12/03 01:18:23;;;;;;;59.32;17.56;;;;;;;0.01;100.00;95856.09;1035592;28;20632;-69
2022/12/03 01:18:53;;;;;;;49.97;17.42;;;;;;;-0.02;100.00;95856.47;1035309;28;20041;-69
2022/12/03 01:19:24;;;;;;;56.45;17.70;;;;;;;-0.08;100.00;95846.94;1038960;28;20032;-69
2022/12/03 01:19:55;;;;;;;52.85;16.95;;;;;;;-0.02;100.00;95857.28;1034667;28;20058;-70
2022/12/03 01:20:25;;;;;;;54.17;17.77;;;;;;;-0.05;100.00;95854.28;1031980;28;20038;-69
2022/12/03 01:20:55;;;;;;;47.25;16.45;;;;;;;-0.08;100.00;95858.03;1034877;28;20542;-69
2022/12/03 01:21:26;;;;;;;58.75;17.75;;;;;;;-0.06;100.00;95850.91;1030554;28;20030;-69
2022/12/03 01:21:57;;;;;;;52.15;16.38;;;;;;;-0.03;100.00;95857.47;1030824;28;20566;-69
2022/12/03 01:22:27;;;;;;;53.50;18.15;;;;;;;-0.04;100.00;95853.28;1026298;28;20027;-69
2022/12/03 01:22:58;;;;;;;60.00;16.52;;;;;;;-0.05;100.00;95854.28;1028513;28;20029;-70
2022/12/03 01:23:28;;;;;;;57.45;18.83;;;;;;;-0.09;100.00;95846.13;1029995;28;20030;-69
2022/12/03 01:23:58;;;;;;;49.80;17.13;;;;;;;-0.07;100.00;95858.81;1034597;28;20026;-69
2022/12/03 01:24:29;;;;;;;49.65;17.25;;;;;;;-0.07;100.00;95851.91;1030763;28;20424;-68
2022/12/03 01:24:59;;;;;;;50.45;16.83;;;;;;;-0.15;100.00;95846.91;1035236;28;20026;-69
2022/12/03 01:25:30;;;;;;;52.83;17.63;;;;;;;-0.12;100.00;95845.72;1034500;28;20057;-69
2022/12/03 01:26:00;;;;;;;56.97;17.98;;;;;;;-0.17;100.00;95851.44;1034376;28;20550;-69
2022/12/03 01:26:31;;;;;;;57.83;18.02;;;;;;;-0.12;100.00;95856.03;1034459;28;20097;-69
2022/12/03 01:27:01;;;;;;;57.53;17.83;;;;;;;-0.26;100.00;95825.03;1038286;28;20029;-69
2022/12/03 01:27:32;;;;;;;54.65;18.58;;;;;;;-0.06;100.00;95855.28;1043293;28;20029;-69
2022/12/03 01:28:02;;;;;;;53.25;18.88;;;;;;;-0.05;100.00;95856.84;1036601;28;20113;-69
2022/12/03 01:28:33;;;;;;;52.42;18.27;;;;;;;-0.04;100.00;95855.88;1039033;28;20096;-69
2022/12/03 01:29:03;;;;;;;55.35;17.52;;;;;;;-0.05;100.00;95856.84;1034819;28;20025;-69
2022/12/03 01:29:34;;;;;;;60.03;17.17;;;;;;;-0.04;100.00;95858.44;1030575;28;20036;-69
2022/12/03 01:30:05;;;;;;;58.20;17.35;;;;;;;-0.04;100.00;95853.28;1030425;28;20037;-69
2022/12/03 01:32:15;;;;;;;49.44;17.18;;;;;;;-0.05;100.00;95857.66;1022909;28;20023;-69
2022/12/03 01:32:21;;;;;;;52.72;17.90;;;;;;;-0.10;100.00;95854.03;1039737;28;20037;-70
2022/12/03 01:32:51;;;;;;;48.00;16.00;;;;;;;-0.04;100.00;95861.03;1034659;28;20380;-68
2022/12/03 01:33:22;;;;;;;52.30;17.58;;;;;;;-0.04;100.00;95858.44;1027246;28;20086;-69
2022/12/03 01:33:52;;;;;;;51.25;16.20;;;;;;;-0.02;100.00;95857.28;1030844;28;20102;-69
2022/12/03 01:34:22;;;;;;;50.63;17.17;;;;;;;-0.02;100.00;95853.91;1033093;28;20653;-69
2022/12/03 01:34:53;;;;;;;53.30;17.48;;;;;;;-0.10;100.00;95848.88;1039405;28;20029;-69
2022/12/03 01:35:24;;;;;;;54.08;18.30;;;;;;;-0.01;100.00;95858.84;1035429;28;20084;-69
2022/12/03 01:35:54;;;;;;;53.50;17.55;;;;;;;-0.02;100.00;95861.63;1036262;28;20017;-69
2022/12/03 01:36:25;;;;;;;53.97;17.75;;;;;;;0.01;100.00;95860.47;1039854;28;20018;-70
2022/12/03 01:36:55;;;;;;;51.08;17.55;;;;;;;0.02;100.00;95867.19;1037398;28;20408;-69
2022/12/03 01:37:26;;;;;;;55.13;18.00;;;;;;;0.01;100.00;95858.66;1040148;28;20479;-70
2022/12/03 01:37:56;;;;;;;51.33;17.80;;;;;;;0.01;100.00;95861.25;1031839;28;20026;-69
2022/12/03 01:38:27;;;;;;;49.88;16.95;;;;;;;0.01;100.00;95865.63;1028045;28;20023;-68
2022/12/03 01:38:57;;;;;;;51.33;17.73;;;;;;;-0.02;100.00;95866.78;1031955;28;20018;-69
2022/12/03 01:39:28;;;;;;;48.67;16.92;;;;;;;0.01;100.00;95865.63;1035760;28;20025;-69
2022/12/03 01:39:58;;;;;;;51.22;18.20;;;;;;;-0.14;100.00;95847.69;1035958;28;20030;-70
2022/12/03 01:40:29;;;;;;;50.03;16.65;;;;;;;0.04;100.00;95865.22;1031691;28;20018;-68
2022/12/03 01:40:59;;;;;;;49.40;16.08;;;;;;;-0.11;100.00;95853.25;1027716;28;20030;-70
2022/12/03 01:41:30;;;;;;;44.08;16.02;;;;;;;-0.04;100.00;95863.59;1027659;28;20035;-68
2022/12/03 01:42:00;;;;;;;45.72;16.65;;;;;;;0.01;100.00;95863.84;1028801;28;20173;-69
2022/12/03 01:42:32;;;;;;;43.22;15.43;;;;;;;0.03;100.00;95858.47;1031288;28;20018;-69
2022/12/03 01:43:03;;;;;;;49.68;17.62;;;;;;;0.00;100.00;95870.00;1027734;28;20022;-69
2022/12/03 01:43:33;;;;;;;51.65;16.85;;;;;;;0.03;100.00;95866.19;1031562;28;20026;-68
2022/12/03 01:44:09;;;;;;;49.17;16.73;;;;;;;-0.02;100.00;95857.28;1032206;28;20117;-69
2022/12/03 01:44:40;;;;;;;40.84;15.22;;;;;;;-0.01;100.00;95865.78;1035730;28;20030;-69
2022/12/03 01:45:16;;;;;;;53.65;16.77;;;;;;;0.01;100.00;95861.25;1031562;28;20640;-69
2022/12/03 01:45:46;;;;;;;49.64;16.32;;;;;;;0.00;100.00;95864.81;1029058;28;20035;-69
2022/12/03 01:46:22;;;;;;;50.83;18.77;;;;;;;0.03;100.00;95861.03;1028433;28;20405;-69
2022/12/03 01:46:53;;;;;;;51.98;17.64;;;;;;;0.03;100.00;95859.25;1025324;28;20098;-68
2022/12/03 01:47:35;;;;;;;49.38;17.30;;;;;;;0.01;100.00;95855.31;1031203;28;20038;-69
2022/12/03 01:48:05;;;;;;;49.28;17.14;;;;;;;0.06;100.00;95868.41;1023695;29;20042;-69
2022/12/03 01:48:36;;;;;;;42.13;17.00;;;;;;;0.01;100.00;95855.31;1027718;28;20026;-69
2022/12/03 01:49:10;;;;;;;52.80;17.80;;;;;;;0.04;100.00;95866.03;1027422;28;20508;-69
2022/12/03 01:49:46;;;;;;;48.78;17.48;;;;;;;0.05;100.00;95866.81;1031993;28;20101;-69
2022/12/03 01:50:28;;;;;;;47.68;16.58;;;;;;;0.02;100.00;95862.84;1031510;28;20113;-69
2022/12/03 01:50:58;;;;;;;44.06;16.54;;;;;;;0.01;100.00;95866.41;1032039;28;20030;-69
2022/12/03 01:51:29;;;;;;;53.72;16.63;;;;;;;0.04;100.00;95875.56;1032477;28;20252;-68
2022/12/03 01:51:59;;;;;;;47.05;15.90;;;;;;;0.00;100.00;95870.00;1031550;28;20603;-70
2022/12/03 01:52:31;;;;;;;47.85;16.55;;;;;;;-0.02;100.00;95866.78;1036273;28;20033;-69
2022/12/03 01:53:02;;;;;;;46.62;15.98;;;;;;;0.00;100.00;95875.16;1031708;28;20097;-68
2022/12/03 01:53:33;;;;;;;51.90;18.36;;;;;;;-0.02;100.00;95867.59;1024072;28;20458;-69
2022/12/03 01:54:03;;;;;;;46.03;16.17;;;;;;;0.01;100.00;95866.41;1023420;28;20070;-71
2022/12/03 01:54:38;;;;;;;47.63;17.42;;;;;;;-0.01;100.00;95873.53;1019894;29;20495;-69
2022/12/03 01:55:18;;;;;;;49.42;16.54;;;;;;;-0.04;100.00;95879.06;1024470;28;20027;-68
2022/12/03 01:55:49;;;;;;;51.47;16.20;;;;;;;-0.04;100.00;95869.56;1031552;28;20033;-69
2022/12/03 01:56:19;;;;;;;48.58;15.82;;;;;;;-0.01;100.00;95876.13;1031778;28;20038;-69
2022/12/03 01:56:50;;;;;;;49.58;16.48;;;;;;;-0.01;100.00;95876.13;1027639;28;20033;-69
2022/12/03 01:57:22;;;;;;;48.53;17.70;;;;;;;-0.07;100.00;95863.97;1027782;28;20477;-69
2022/12/03 01:57:54;;;;;;;50.58;16.94;;;;;;;-0.01;100.00;95878.69;1032225;28;20052;-69
2022/12/03 01:58:26;;;;;;;50.74;18.32;;;;;;;-0.02;100.00;95874.53;1032069;28;20033;-68
2022/12/03 01:58:56;;;;;;;48.90;15.90;;;;;;;-0.05;100.00;95867.97;1032737;28;20038;-68
2022/12/03 01:59:34;;;;;;;52.97;16.75;;;;;;;-0.06;100.00;95871.53;1031615;28;20484;-69
2022/12/03 02:00:06;;;;;;;54.14;17.64;;;;;;;-0.05;100.00;95872.34;1027522;28;20023;-69
2022/12/03 02:00:37;;;;;;;44.68;15.98;;;;;;;0.01;100.00;95870.78;1028374;28;20516;-69
2022/12/03 02:01:15;;;;;;;55.83;17.42;;;;;;;0.02;100.00;95873.16;1027577;28;20109;-68
2022/12/03 02:01:45;;;;;;;50.14;17.26;;;;;;;0.04;100.00;95876.34;1029152;28;20014;-68
2022/12/03 02:02:21;;;;;;;48.35;16.98;;;;;;;0.05;100.00;95877.13;1028248;28;20039;-69
2022/12/03 02:02:54;;;;;;;49.72;17.94;;;;;;;0.03;100.00;95869.56;1032390;28;20062;-72
2022/12/03 02:03:24;;;;;;;53.52;18.70;;;;;;;0.03;100.00;95874.72;1035279;28;20038;-69
2022/12/03 02:03:55;;;;;;;59.22;18.75;;;;;;;0.07;100.00;95875.97;1028749;28;20023;-69
2022/12/03 02:04:25;;;;;;;51.90;18.33;;;;;;;0.03;100.00;95879.88;1024023;28;20793;-70
2022/12/03 02:04:56;;;;;;;51.08;18.50;;;;;;;0.04;100.00;95871.19;1027681;28;20023;-70
2022/12/03 02:05:30;;;;;;;58.28;18.88;;;;;;;-0.01;100.00;95861.44;1023916;29;20019;-69
2022/12/03 02:06:01;;;;;;;55.44;19.16;;;;;;;-0.01;100.00;95876.13;1034019;28;20028;-69
2022/12/03 02:06:31;;;;;;;58.83;19.08;;;;;;;-0.03;100.00;95880.69;1035584;28;20049;-69
2022/12/03 02:07:24;;;;;;;55.13;18.60;;;;;;;-0.09;100.00;95860.81;1032364;28;20405;-70
2022/12/03 02:07:55;;;;;;;54.44;18.10;;;;;;;-0.05;100.00;95874.91;1034757;28;20437;-68
2022/12/03 02:08:33;;;;;;;68.93;20.23;;;;;;;-0.03;100.00;95875.53;1031847;28;20104;-69
2022/12/03 02:09:07;;;;;;;55.22;17.82;;;;;;;-0.02;100.00;95879.69;1027563;28;20058;-71
2022/12/03 02:09:37;;;;;;;58.84;18.96;;;;;;;-0.03;100.00;95878.09;1031603;28;20638;-69
2022/12/03 02:10:10;;;;;;;59.13;19.45;;;;;;;-0.08;100.00;95878.66;1030939;28;20026;-69
2022/12/03 02:10:40;;;;;;;59.80;17.98;;;;;;;-0.11;100.00;95871.31;1036450;28;20018;-70
2022/12/03 02:11:27;;;;;;;55.30;18.75;;;;;;;-0.06;100.00;95881.84;1039257;28;20017;-69
2022/12/03 02:11:57;;;;;;;52.44;19.56;;;;;;;-0.05;100.00;95877.50;1031629;28;20419;-69
2022/12/03 02:12:34;;;;;;;58.58;18.95;;;;;;;-0.13;100.00;95868.16;1030808;28;20023;-68
2022/12/03 02:13:06;;;;;;;53.36;18.68;;;;;;;-0.10;100.00;95879.84;1034506;28;20083;-68
2022/12/03 02:13:37;;;;;;;58.04;18.26;;;;;;;-0.12;100.00;95871.50;1032761;28;20022;-69
2022/12/03 02:14:12;;;;;;;60.70;19.48;;;;;;;-0.17;100.00;95868.69;1027759;28;20026;-68
2022/12/03 02:14:42;;;;;;;54.42;19.74;;;;;;;-0.14;100.00;95873.47;1020650;29;20024;-69
2022/12/03 02:15:12;;;;;;;64.97;20.65;;;;;;;-0.10;100.00;95878.09;1020209;29;20517;-69
2022/12/03 02:15:43;;;;;;;63.60;20.42;;;;;;;-0.13;100.00;95880.25;1021183;28;20347;-69
2022/12/03 02:16:13;;;;;;;60.95;18.80;;;;;;;-0.13;100.00;95869.94;1023944;28;20015;-69
2022/12/03 02:16:44;;;;;;;61.30;19.17;;;;;;;-0.09;100.00;95876.28;1027913;28;20074;-69
2022/12/03 02:17:14;;;;;;;66.03;19.73;;;;;;;-0.07;100.00;95875.13;1027342;28;20073;-70
2022/12/03 02:17:45;;;;;;;57.50;19.58;;;;;;;-0.07;100.00;95876.88;1027272;28;20153;-69
2022/12/03 02:18:15;;;;;;;57.55;19.83;;;;;;;-0.16;100.00;95857.41;1023819;28;20071;-69
2022/12/03 02:18:46;;;;;;;65.82;19.70;;;;;;;-0.12;100.00;95872.31;1023263;29;20481;-70
2022/12/03 02:19:26;;;;;;;69.32;20.38;;;;;;;-0.17;100.00;95863.53;1023468;28;20011;-69
2022/12/03 02:19:57;;;;;;;52.58;18.42;;;;;;;-0.16;100.00;95870.31;1023534;29;20019;-69
2022/12/03 02:20:27;;;;;;;62.78;19.70;;;;;;;-0.17;100.00;95872.06;1028569;28;20026;-69
2022/12/03 02:21:15;;;;;;;60.03;20.17;;;;;;;-0.18;100.00;95861.97;1027657;28;20015;-69
2022/12/03 02:22:06;;;;;;;58.94;19.52;;;;;;;-0.12;100.00;95871.50;1027504;28;20026;-69
2022/12/03 02:23:10;;;;;;;68.66;21.08;;;;;;;-0.11;100.00;95867.94;1032924;28;20010;-69
2022/12/03 02:23:57;;;;;;;61.86;19.54;;;;;;;-0.10;100.00;95872.09;1032869;28;20024;-69
2022/12/03 02:24:36;;;;;;;59.38;18.92;;;;;;;-0.18;100.00;95851.66;1033948;28;20041;-69
2022/12/03 02:25:13;;;;;;;63.00;16.98;;;;;;;-0.10;100.00;95861.78;1030102;28;20046;-69
2022/12/03 02:25:43;;;;;;;62.84;18.92;;;;;;;-0.07;100.00;95869.97;1031350;28;20018;-70